Overseas Milos — V7WR8 — position and weather

sailwx.info

Track history (hours):
 
Tides and Currents Weather Stations Pressure Air Temp Water Temp Dewpoint Dewpoint Depression Visibility Wind Speed Wind Dir Waves Ship Positions

Overseas Milos

Last reported at 2015-Feb-11 04:27 UTC. Time now 2015-Mar-01 08:29 UTC.
Position N 29°21' W 094°45'.
Warning: this ship's position is 18 days out of date.

Length 183 m; draft 11.8 m.

Type: Tanker. MMSI: 538004376.

Date/timePositionNaut miles runAvg speedWind from/ knotsBaromVisibWave heightAir tempDewpointWater temp
2015-Feb-11 04:27N 29°21' W 094°45'9 9.6
2015-Feb-11 03:33N 29°28' W 094°51'1010.0
2015-Feb-11 02:33N 29°36' W 094°57'8 8.0
2015-Feb-11 01:33N 29°43' W 095°01'5 5.2
2015-Feb-11 00:33N 29°44' W 095°07'5 4.6
2015-Feb-10 23:33N 29°44' W 095°12'1 0.8
2015-Feb-10 22:34N 29°44' W 095°13'0 0.0
2015-Feb-10 21:33N 29°44' W 095°13'0 0.0
2015-Feb-10 20:33N 29°44' W 095°13'0 0.0
2015-Feb-10 19:33N 29°44' W 095°13'0 0.0
2015-Feb-10 18:33N 29°44' W 095°13'0 0.0
2015-Feb-10 17:33N 29°44' W 095°13'0 0.0
2015-Feb-10 16:33N 29°44' W 095°13'0 0.0
2015-Feb-10 15:33N 29°44' W 095°13'0 0.0
2015-Feb-10 14:30N 29°44' W 095°13'0 0.0
2015-Feb-10 13:33N 29°44' W 095°13'0 0.0
2015-Feb-10 12:33N 29°44' W 095°13'0 0.0
2015-Feb-10 11:33N 29°44' W 095°13'0 0.0
2015-Feb-10 10:33N 29°44' W 095°13'0 0.0
2015-Feb-10 09:33N 29°44' W 095°13'0 0.0
2015-Feb-10 08:33N 29°44' W 095°13'0 0.0
2015-Feb-10 07:33N 29°44' W 095°13'0 0.0
2015-Feb-10 06:33N 29°44' W 095°13'0 0.0
2015-Feb-10 05:33N 29°44' W 095°13'0 0.0
2015-Feb-10 04:30N 29°44' W 095°13'0 0.0
2015-Feb-10 03:30N 29°44' W 095°13'0 0.0
2015-Feb-10 02:33N 29°44' W 095°13'0 0.0
2015-Feb-10 01:33N 29°44' W 095°13'0 0.0
2015-Feb-10 00:33N 29°44' W 095°13'0 0.0
2015-Feb-09 23:33N 29°44' W 095°13'0 0.0
2015-Feb-09 22:33N 29°44' W 095°13'0 0.0
2015-Feb-09 21:33N 29°44' W 095°13'0 0.0
2015-Feb-09 20:33N 29°44' W 095°13'0 0.0
2015-Feb-09 19:33N 29°44' W 095°13'0 0.0
2015-Feb-09 18:33N 29°44' W 095°13'0 0.0
2015-Feb-09 17:33N 29°44' W 095°13'0 0.0
2015-Feb-09 16:33N 29°44' W 095°13'0 0.0
2015-Feb-09 15:33N 29°44' W 095°13'0 0.0
2015-Feb-09 14:33N 29°44' W 095°13'  
2015-Feb-07 02:31N 29°43' W 095°14'3 3.4
2015-Feb-07 01:33N 29°45' W 095°11'5 5.5
2015-Feb-07 00:33N 29°46' W 095°05'9 9.1
2015-Feb-06 23:33N 29°39' W 094°58'1312.5
2015-Feb-06 22:33N 29°28' W 094°51'  
Track history (hours):
 
Tides and Currents Weather Stations Pressure Air Temp Water Temp Dewpoint Dewpoint Depression Visibility Wind Speed Wind Dir Waves Ship Positions

Overseas Milos

Last reported at 2015-Feb-11 04:27 UTC. Time now 2015-Mar-01 08:29 UTC.
Position N 29°21' W 094°45'.
Warning: this ship's position is 18 days out of date.

Length 183 m; draft 11.8 m.

Type: Tanker. MMSI: 538004376.

Date/timePositionNaut miles runAvg speedWind from/ knotsBaromVisibWave heightAir tempDewpointWater temp
2015-Feb-11 04:27N 29°21' W 094°45'9 9.6
2015-Feb-11 03:33N 29°28' W 094°51'1010.0
2015-Feb-11 02:33N 29°36' W 094°57'8 8.0
2015-Feb-11 01:33N 29°43' W 095°01'5 5.2
2015-Feb-11 00:33N 29°44' W 095°07'5 4.6
2015-Feb-10 23:33N 29°44' W 095°12'1 0.8
2015-Feb-10 22:34N 29°44' W 095°13'0 0.0
2015-Feb-10 21:33N 29°44' W 095°13'0 0.0
2015-Feb-10 20:33N 29°44' W 095°13'0 0.0
2015-Feb-10 19:33N 29°44' W 095°13'0 0.0
2015-Feb-10 18:33N 29°44' W 095°13'0 0.0
2015-Feb-10 17:33N 29°44' W 095°13'0 0.0
2015-Feb-10 16:33N 29°44' W 095°13'0 0.0
2015-Feb-10 15:33N 29°44' W 095°13'0 0.0
2015-Feb-10 14:30N 29°44' W 095°13'0 0.0
2015-Feb-10 13:33N 29°44' W 095°13'0 0.0
2015-Feb-10 12:33N 29°44' W 095°13'0 0.0
2015-Feb-10 11:33N 29°44' W 095°13'0 0.0
2015-Feb-10 10:33N 29°44' W 095°13'0 0.0
2015-Feb-10 09:33N 29°44' W 095°13'0 0.0
2015-Feb-10 08:33N 29°44' W 095°13'0 0.0
2015-Feb-10 07:33N 29°44' W 095°13'0 0.0
2015-Feb-10 06:33N 29°44' W 095°13'0 0.0
2015-Feb-10 05:33N 29°44' W 095°13'0 0.0
2015-Feb-10 04:30N 29°44' W 095°13'0 0.0
2015-Feb-10 03:30N 29°44' W 095°13'0 0.0
2015-Feb-10 02:33N 29°44' W 095°13'0 0.0
2015-Feb-10 01:33N 29°44' W 095°13'0 0.0
2015-Feb-10 00:33N 29°44' W 095°13'0 0.0
2015-Feb-09 23:33N 29°44' W 095°13'0 0.0
2015-Feb-09 22:33N 29°44' W 095°13'0 0.0
2015-Feb-09 21:33N 29°44' W 095°13'0 0.0
2015-Feb-09 20:33N 29°44' W 095°13'0 0.0
2015-Feb-09 19:33N 29°44' W 095°13'0 0.0
2015-Feb-09 18:33N 29°44' W 095°13'0 0.0
2015-Feb-09 17:33N 29°44' W 095°13'0 0.0
2015-Feb-09 16:33N 29°44' W 095°13'0 0.0
2015-Feb-09 15:33N 29°44' W 095°13'0 0.0
2015-Feb-09 14:33N 29°44' W 095°13'  
2015-Feb-07 02:31N 29°43' W 095°14'3 3.4
2015-Feb-07 01:33N 29°45' W 095°11'5 5.5
2015-Feb-07 00:33N 29°46' W 095°05'9 9.1
2015-Feb-06 23:33N 29°39' W 094°58'1312.5
2015-Feb-06 22:33N 29°28' W 094°51'  

Dump ship's entire track history